createdAt,value
2022-12-08T00:02:21.873Z,9.63
2022-12-08T00:05:41.571Z,12.18
2022-12-08T00:09:00.352Z,10.13
2022-12-08T00:12:05.923Z,6.07
2022-12-08T00:15:10.133Z,7.78
2022-12-08T00:18:13.882Z,10.23
2022-12-08T00:24:24.180Z,12.23
2022-12-08T00:27:27.906Z,15.88
2022-12-08T00:33:35.197Z,11.43
2022-12-08T00:39:45.091Z,10.00
2022-12-08T00:42:48.858Z,10.80
2022-12-08T00:48:56.325Z,11.93
2022-12-08T00:52:00.114Z,9.82
2022-12-08T00:58:09.914Z,12.95
2022-12-08T01:04:20.053Z,12.98
2022-12-08T01:07:24.086Z,14.90
2022-12-08T01:10:29.784Z,19.30
2022-12-08T01:13:33.704Z,11.82
2022-12-08T01:16:40.528Z,10.07
2022-12-08T01:19:44.390Z,18.17
2022-12-08T01:25:53.794Z,14.50
2022-12-08T01:28:57.798Z,15.45
2022-12-08T01:32:01.601Z,10.52
2022-12-08T01:38:08.921Z,9.17
2022-12-08T01:41:16.622Z,13.05
2022-12-08T01:44:50.634Z,11.73
2022-12-08T01:47:57.938Z,11.18
2022-12-08T01:51:01.980Z,10.77
2022-12-08T01:54:08.346Z,7.28
2022-12-08T01:57:18.384Z,9.75
2022-12-08T02:00:24.434Z,12.35
2022-12-08T02:03:32.104Z,12.32
2022-12-08T02:06:40.015Z,13.32
2022-12-08T02:09:43.915Z,11.88
2022-12-08T02:12:51.488Z,13.18
2022-12-08T02:16:04.750Z,10.98
2022-12-08T02:19:38.220Z,10.23
2022-12-08T02:22:49.077Z,13.45
2022-12-08T02:26:37.782Z,10.32
2022-12-08T02:30:04.149Z,16.02
2022-12-08T02:33:34.985Z,11.35
2022-12-08T02:36:48.542Z,17.50
2022-12-08T02:39:59.589Z,13.32
2022-12-08T02:43:08.060Z,10.10
2022-12-08T02:46:16.707Z,13.10
2022-12-08T02:49:20.463Z,12.68
2022-12-08T02:52:42.060Z,10.45
2022-12-08T02:55:58.129Z,12.43
2022-12-08T02:59:20.619Z,14.40
2022-12-08T03:02:37.289Z,15.48
2022-12-08T03:05:57.691Z,15.48
2022-12-08T03:09:09.932Z,13.63
2022-12-08T03:12:20.570Z,14.77
2022-12-08T03:15:24.615Z,16.13
2022-12-08T03:18:32.996Z,13.77
2022-12-08T03:21:37.688Z,17.23
2022-12-08T03:24:46.445Z,12.10
2022-12-08T03:27:51.945Z,14.23
2022-12-08T03:30:59.547Z,23.90
2022-12-08T03:34:06.399Z,14.98
2022-12-08T03:37:10.297Z,11.85
2022-12-08T03:40:18.931Z,13.63
2022-12-08T03:43:22.671Z,11.32
2022-12-08T03:49:31.479Z,10.98
2022-12-08T03:52:35.224Z,14.88
2022-12-08T03:55:41.148Z,18.08
2022-12-08T03:58:45.457Z,12.10
2022-12-08T04:01:49.372Z,12.15
2022-12-08T04:04:53.146Z,12.10
2022-12-08T04:11:05.655Z,10.15
2022-12-08T04:14:09.468Z,14.20
2022-12-08T04:20:16.711Z,13.40
2022-12-08T04:23:20.625Z,7.47
2022-12-08T04:26:26.357Z,9.00
2022-12-08T04:29:30.106Z,5.05
2022-12-08T04:32:33.800Z,6.10
2022-12-08T04:35:37.758Z,5.53
2022-12-08T04:38:41.724Z,5.95
2022-12-08T04:41:47.395Z,8.50
2022-12-08T04:44:51.201Z,7.32
2022-12-08T04:47:54.987Z,5.45
2022-12-08T04:50:58.683Z,6.40
2022-12-08T04:54:02.629Z,5.50
2022-12-08T04:57:08.359Z,7.38
2022-12-08T05:00:13.661Z,10.88
2022-12-08T05:03:17.994Z,11.40
2022-12-08T05:06:21.853Z,10.13
2022-12-08T05:12:31.182Z,8.98
2022-12-08T05:15:35.177Z,12.57
2022-12-08T05:18:39.528Z,8.93
2022-12-08T05:21:43.509Z,9.00
2022-12-08T05:24:48.013Z,11.00
2022-12-08T05:28:06.143Z,7.93
2022-12-08T05:31:19.358Z,9.50
2022-12-08T05:34:23.144Z,13.70
2022-12-08T05:37:27.007Z,9.38
2022-12-08T05:43:36.876Z,9.93
2022-12-08T05:46:40.771Z,13.80
2022-12-08T05:52:48.177Z,8.60
2022-12-08T05:55:51.935Z,12.38
2022-12-08T05:58:57.640Z,9.30
2022-12-08T06:02:01.585Z,8.95
2022-12-08T06:05:05.824Z,9.95
2022-12-08T06:08:10.221Z,10.05
2022-12-08T06:11:23.109Z,13.98
2022-12-08T06:14:28.880Z,10.43
2022-12-08T06:17:32.709Z,7.88
2022-12-08T06:23:40.779Z,6.30
2022-12-08T06:26:46.283Z,9.38
2022-12-08T06:29:51.963Z,9.15
2022-12-08T06:32:55.767Z,12.07
2022-12-08T06:39:03.955Z,6.70
2022-12-08T06:42:21.036Z,6.53
2022-12-08T06:45:26.731Z,9.90
2022-12-08T06:48:33.580Z,7.53
2022-12-08T06:51:37.501Z,6.57
2022-12-08T06:54:41.558Z,7.90
2022-12-08T06:57:45.642Z,5.97
2022-12-08T07:03:55.078Z,9.57
2022-12-08T07:06:58.959Z,7.38
2022-12-08T07:16:13.716Z,6.65
2022-12-08T07:19:17.627Z,5.47
2022-12-08T07:25:24.890Z,9.00
2022-12-08T07:28:28.634Z,7.15
2022-12-08T07:31:34.489Z,7.45
2022-12-08T07:34:38.395Z,6.65
2022-12-08T07:40:45.886Z,6.90
2022-12-08T07:46:55.078Z,6.73
2022-12-08T07:49:58.894Z,8.45
2022-12-08T07:56:08.024Z,4.90
2022-12-08T07:59:11.799Z,8.98
2022-12-08T08:05:29.528Z,7.75
2022-12-08T08:08:33.682Z,10.98
2022-12-08T08:11:37.593Z,8.38
2022-12-08T08:17:46.730Z,7.70
2022-12-08T08:20:51.536Z,8.50
2022-12-08T08:23:55.370Z,7.30
2022-12-08T08:26:59.260Z,14.38
2022-12-08T08:30:03.432Z,10.13
2022-12-08T08:33:09.512Z,8.02
2022-12-08T08:36:13.548Z,7.13
2022-12-08T08:39:17.372Z,8.02
2022-12-08T08:45:25.144Z,6.57
2022-12-08T08:51:35.258Z,8.63
2022-12-08T08:54:39.161Z,6.22
2022-12-08T08:57:42.967Z,9.65
2022-12-08T09:03:52.847Z,5.07
2022-12-08T09:06:56.604Z,4.05
2022-12-08T09:10:02.069Z,5.60
2022-12-08T09:13:06.605Z,4.72
2022-12-08T09:19:16.333Z,5.63
2022-12-08T09:22:20.130Z,4.00
2022-12-08T09:28:27.464Z,8.02
2022-12-08T09:34:36.987Z,7.70
2022-12-08T09:37:40.762Z,4.82
2022-12-08T09:44:04.066Z,3.55
2022-12-08T09:47:17.688Z,4.15
2022-12-08T09:50:32.267Z,5.10
2022-12-08T09:53:39.127Z,4.75
2022-12-08T09:56:43.082Z,5.15
2022-12-08T10:02:53.335Z,7.40
2022-12-08T10:06:05.672Z,4.18
2022-12-08T10:09:24.933Z,6.80
2022-12-08T10:12:37.423Z,8.00
2022-12-08T10:15:48.359Z,2.97
2022-12-08T10:18:58.243Z,5.40
2022-12-08T10:22:15.180Z,4.93
2022-12-08T10:25:21.591Z,3.60
2022-12-08T10:28:25.390Z,2.53
2022-12-08T10:34:33.048Z,2.20
2022-12-08T10:40:45.879Z,5.90
2022-12-08T10:43:52.098Z,1.67
2022-12-08T10:46:56.311Z,2.47
2022-12-08T10:50:18.841Z,4.47
2022-12-08T10:53:26.913Z,4.75
2022-12-08T10:56:32.376Z,2.35
2022-12-08T10:59:36.250Z,4.80
2022-12-08T11:05:58.925Z,2.88
2022-12-08T11:09:08.114Z,3.63
2022-12-08T11:12:16.422Z,4.57
2022-12-08T11:15:20.744Z,4.20
2022-12-08T11:18:29.191Z,4.88
2022-12-08T11:21:37.607Z,2.78
2022-12-08T11:25:10.065Z,2.63
2022-12-08T11:28:13.905Z,2.80
2022-12-08T11:34:35.277Z,4.10
2022-12-08T11:37:42.209Z,3.42
2022-12-08T11:40:48.101Z,2.85
2022-12-08T11:43:57.365Z,6.78
2022-12-08T11:47:07.359Z,9.07
2022-12-08T11:50:22.230Z,5.50
2022-12-08T11:53:32.110Z,7.63
2022-12-08T11:56:40.434Z,8.30
2022-12-08T11:59:48.934Z,4.78
2022-12-08T12:02:58.139Z,4.18
2022-12-08T12:10:27.554Z,10.70
2022-12-08T12:13:47.231Z,3.88
2022-12-08T12:17:01.745Z,4.03
2022-12-08T12:20:13.649Z,6.50
2022-12-08T12:23:22.479Z,7.57
2022-12-08T12:26:29.598Z,5.88
2022-12-08T12:29:37.917Z,5.30
2022-12-08T12:32:46.061Z,4.30
2022-12-08T12:35:50.732Z,4.30
2022-12-08T12:39:03.673Z,4.13
2022-12-08T12:42:07.501Z,8.00
2022-12-08T12:48:31.723Z,3.35
2022-12-08T12:55:30.656Z,4.85
2022-12-08T13:01:56.575Z,5.80
2022-12-08T13:05:04.585Z,3.67
2022-12-08T13:08:18.276Z,4.97
2022-12-08T13:11:23.815Z,5.15
2022-12-08T13:14:39.148Z,2.78
2022-12-08T13:17:48.011Z,5.30
2022-12-08T13:20:55.620Z,2.13
2022-12-08T13:24:17.071Z,2.67
2022-12-08T13:27:35.442Z,4.10
2022-12-08T13:30:44.835Z,2.03
2022-12-08T13:33:50.645Z,2.28
2022-12-08T13:37:03.614Z,3.67
2022-12-08T13:40:11.854Z,3.03
2022-12-08T13:43:21.541Z,3.88
2022-12-08T13:54:16.341Z,2.92
2022-12-08T13:57:08.430Z,2.90
2022-12-08T14:00:21.701Z,2.40
2022-12-08T14:03:25.715Z,2.08
2022-12-08T14:09:38.286Z,2.22
2022-12-08T14:12:45.429Z,5.45
2022-12-08T14:15:49.588Z,2.78
2022-12-08T14:18:53.313Z,4.32
2022-12-08T14:22:02.143Z,2.00
2022-12-08T14:25:08.334Z,3.33
2022-12-08T14:28:13.150Z,3.10
2022-12-08T14:31:19.104Z,4.03
2022-12-08T14:34:22.989Z,4.65
2022-12-08T14:37:32.510Z,4.07
2022-12-08T14:40:38.184Z,2.70
2022-12-08T14:43:42.503Z,4.07
2022-12-08T14:47:06.984Z,3.25
2022-12-08T14:50:38.112Z,5.25
2022-12-08T14:53:46.501Z,3.72
2022-12-08T14:56:53.680Z,3.83
2022-12-08T14:59:57.584Z,5.07
2022-12-08T15:06:11.588Z,5.13
2022-12-08T15:09:32.773Z,1.70
2022-12-08T15:12:36.781Z,2.78
2022-12-08T15:15:51.397Z,4.10
2022-12-08T15:19:04.771Z,3.15
2022-12-08T15:22:14.940Z,1.63
2022-12-08T15:25:20.829Z,4.55
2022-12-08T15:28:29.677Z,2.28
2022-12-08T15:31:34.012Z,2.55
2022-12-08T15:37:42.007Z,3.05
2022-12-08T15:40:47.749Z,2.65
2022-12-08T15:43:51.562Z,5.65
2022-12-08T15:49:59.203Z,5.22
2022-12-08T15:53:03.172Z,3.45
2022-12-08T15:59:33.810Z,3.00
2022-12-08T16:03:05.018Z,3.05
2022-12-08T16:06:50.767Z,3.10
2022-12-08T16:09:34.047Z,3.83
2022-12-08T16:16:20.879Z,4.22
2022-12-08T16:19:25.083Z,4.30
2022-12-08T16:26:20.304Z,6.80
2022-12-08T16:29:22.351Z,3.30
2022-12-08T16:32:27.600Z,3.22
2022-12-08T16:35:32.464Z,3.20
2022-12-08T16:38:37.362Z,4.90
2022-12-08T16:41:54.259Z,10.63
2022-12-08T16:45:00.079Z,5.65
2022-12-08T16:48:03.930Z,5.85
2022-12-08T16:54:13.443Z,4.50
2022-12-08T16:57:17.240Z,4.72
2022-12-08T17:00:25.844Z,5.70
2022-12-08T17:03:29.726Z,8.57
2022-12-08T17:09:36.989Z,5.97
2022-12-08T17:15:46.301Z,9.60
2022-12-08T17:18:50.243Z,5.88
2022-12-08T17:21:54.002Z,4.95
2022-12-08T17:24:57.823Z,7.95
2022-12-08T17:28:01.721Z,5.88
2022-12-08T17:34:16.129Z,8.57
2022-12-08T17:37:20.535Z,6.43
2022-12-08T17:40:28.094Z,4.40
2022-12-08T17:43:32.383Z,11.20
2022-12-08T17:46:42.063Z,3.55
2022-12-08T17:49:47.434Z,5.22
2022-12-08T17:52:51.841Z,4.93
2022-12-08T17:55:57.696Z,7.13
2022-12-08T17:59:03.678Z,4.85
2022-12-08T18:02:12.399Z,6.93
2022-12-08T18:05:16.161Z,7.07
2022-12-08T18:11:23.536Z,12.17
2022-12-08T18:14:27.863Z,9.43
2022-12-08T18:17:33.565Z,9.82
2022-12-08T18:20:38.791Z,9.48
2022-12-08T18:23:43.957Z,8.35
2022-12-08T18:26:48.131Z,7.65
2022-12-08T18:29:51.872Z,8.43
2022-12-08T18:32:57.790Z,10.38
2022-12-08T18:36:01.585Z,9.13
2022-12-08T18:42:27.668Z,10.10
2022-12-08T18:45:31.687Z,12.38
2022-12-08T18:48:38.725Z,9.93
2022-12-08T18:51:42.884Z,9.45
2022-12-08T18:58:10.737Z,7.95
2022-12-08T19:01:15.780Z,8.70
2022-12-08T19:04:29.383Z,8.85
2022-12-08T19:07:33.611Z,9.60
2022-12-08T19:10:39.457Z,8.85
2022-12-08T19:13:43.226Z,16.15
2022-12-08T19:19:52.337Z,10.65
2022-12-08T19:22:56.424Z,11.05
2022-12-08T19:26:00.429Z,12.15
2022-12-08T19:29:04.163Z,10.93
2022-12-08T19:32:07.930Z,14.93
2022-12-08T19:35:13.644Z,13.35
2022-12-08T19:38:17.530Z,10.98
2022-12-08T19:41:34.715Z,10.32
2022-12-08T19:44:51.627Z,9.70
2022-12-08T19:47:55.565Z,16.42
2022-12-08T19:54:05.141Z,19.92
2022-12-08T19:57:09.556Z,14.32
2022-12-08T20:00:14.429Z,14.85
2022-12-08T20:03:18.782Z,17.83
2022-12-08T20:06:26.111Z,13.70
2022-12-08T20:09:30.017Z,17.23
2022-12-08T20:12:33.803Z,19.88
2022-12-08T20:15:37.550Z,20.67
2022-12-08T20:21:48.219Z,22.85
2022-12-08T20:25:12.400Z,16.25
2022-12-08T20:28:18.365Z,20.50
2022-12-08T20:31:24.571Z,18.73
2022-12-08T20:34:29.706Z,19.15
2022-12-08T20:37:35.465Z,27.33
2022-12-08T20:40:43.103Z,26.10
2022-12-08T20:43:48.415Z,19.40
2022-12-08T20:46:52.188Z,26.25
2022-12-08T20:53:01.561Z,20.48
2022-12-08T20:56:05.499Z,20.30
2022-12-08T20:59:09.411Z,20.13
2022-12-08T21:02:13.448Z,20.75
2022-12-08T21:05:17.785Z,21.58
2022-12-08T21:08:25.452Z,27.70
2022-12-08T21:11:29.265Z,21.98
2022-12-08T21:14:33.014Z,20.50
2022-12-08T21:20:41.055Z,20.40
2022-12-08T21:26:50.503Z,17.20
2022-12-08T21:32:57.983Z,23.33
2022-12-08T21:36:07.220Z,17.25
2022-12-08T21:39:13.143Z,20.83
2022-12-08T21:42:34.042Z,20.10
2022-12-08T21:45:38.385Z,18.67
2022-12-08T21:51:46.507Z,24.10
2022-12-08T21:54:52.403Z,23.05
2022-12-08T21:57:56.543Z,23.08
2022-12-08T22:01:06.775Z,20.92
2022-12-08T22:04:11.604Z,21.65
2022-12-08T22:07:15.662Z,21.52
2022-12-08T22:10:22.811Z,26.83
2022-12-08T22:13:26.636Z,23.45
2022-12-08T22:19:34.454Z,22.13
2022-12-08T22:22:38.465Z,21.38
2022-12-08T22:25:44.182Z,16.83
2022-12-08T22:28:48.351Z,20.33
2022-12-08T22:31:52.331Z,21.27
2022-12-08T22:34:56.275Z,17.13
2022-12-08T22:41:08.385Z,23.50
2022-12-08T22:44:15.148Z,22.10
2022-12-08T22:47:18.991Z,22.67
2022-12-08T22:50:22.995Z,19.90
2022-12-08T22:53:27.088Z,20.58
2022-12-08T22:56:32.767Z,24.05
2022-12-08T22:59:40.060Z,22.25
2022-12-08T23:02:44.082Z,23.75
2022-12-08T23:05:47.950Z,22.63
2022-12-08T23:08:52.299Z,22.23
2022-12-08T23:11:58.227Z,21.60
2022-12-08T23:15:02.516Z,22.52
2022-12-08T23:18:07.924Z,21.40
2022-12-08T23:21:14.826Z,20.85
2022-12-08T23:24:18.542Z,22.45
2022-12-08T23:27:24.252Z,24.23
2022-12-08T23:30:28.433Z,23.35
2022-12-08T23:33:32.588Z,21.05
2022-12-08T23:36:36.712Z,20.70
2022-12-08T23:39:40.735Z,20.60
2022-12-08T23:42:46.859Z,20.92
2022-12-08T23:45:50.696Z,21.13
2022-12-08T23:48:54.492Z,23.90
2022-12-08T23:51:58.208Z,21.20
2022-12-08T23:55:01.986Z,21.02
2022-12-08T23:58:07.808Z,16.50
